Time;durP1;ratioP1;P1;durP2;ratioP2;P2;SDS_P1;SDS_P2;PMS_P1;PMS_P2;Temp;Humidity;BMP_temperature;BMP_pressure;BME280_temperature;BME280_humidity;BME280_pressure;Samples;Min_cycle;Max_cycle;Signal;HPM_P1;HPM_P2
2023/09/03 00:00:05;;;;;;;34.53;31.35;;;;;;;13.77;100.00;152143.50;10535212;28;20080;-73
2023/09/03 00:05:11;;;;;;;26.05;23.15;;;;;;;14.12;100.00;152234.13;10536507;28;20107;-73
2023/09/03 00:10:13;;;;;;;18.15;16.95;;;;;;;14.31;100.00;152282.00;10535820;28;20048;-72
2023/09/03 00:15:14;;;;;;;16.08;14.95;;;;;;;13.89;100.00;152174.53;10535308;28;20054;-73
2023/09/03 00:20:16;;;;;;;14.65;13.65;;;;;;;13.77;100.00;152143.50;10515793;28;20401;-73
2023/09/03 00:25:18;;;;;;;14.32;13.32;;;;;;;13.88;100.00;152173.25;10534106;28;20036;-72
2023/09/03 00:30:20;;;;;;;14.85;13.73;;;;;;;13.86;100.00;152168.09;10532062;28;20475;-73
2023/09/03 00:35:21;;;;;;;12.77;11.77;;;;;;;13.99;100.00;152200.47;10531849;28;20068;-72
2023/09/03 00:40:23;;;;;;;12.30;11.40;;;;;;;14.10;100.00;152227.63;10532436;28;20050;-73
2023/09/03 00:45:25;;;;;;;13.05;12.23;;;;;;;14.11;100.00;152231.50;10532333;28;20048;-72
2023/09/03 00:50:29;;;;;;;11.27;10.48;;;;;;;14.56;100.00;152345.47;10532117;28;20070;-73
2023/09/03 00:55:32;;;;;;;11.77;10.93;;;;;;;14.55;100.00;152341.59;10509083;28;20068;-72
2023/09/03 01:00:35;;;;;;;10.55;9.85;;;;;;;14.54;100.00;152339.03;10505218;28;20078;-72
2023/09/03 01:05:36;;;;;;;10.48;9.82;;;;;;;14.34;100.00;152289.78;10504499;28;20461;-73
2023/09/03 01:11:19;;;;;;;11.73;10.82;;;;;;;14.29;100.00;152275.50;10503177;28;20132;-73
2023/09/03 01:16:27;;;;;;;12.38;9.85;;;;;;;14.31;100.00;152282.00;10502418;28;20098;-73
2023/09/03 01:21:48;;;;;;;11.77;10.88;;;;;;;14.29;100.00;152276.81;10504087;28;20072;-73
2023/09/03 01:27:10;;;;;;;11.18;10.38;;;;;;;14.23;100.00;152260.00;10502452;28;20060;-74
2023/09/03 01:32:12;;;;;;;12.95;12.07;;;;;;;14.16;100.00;152243.13;10503406;28;20044;-73
2023/09/03 01:37:15;;;;;;;16.00;14.90;;;;;;;14.21;100.00;152256.13;10502353;28;20124;-73
2023/09/03 01:42:17;;;;;;;15.93;14.73;;;;;;;14.28;100.00;152274.22;10500988;28;20131;-74
2023/09/03 01:47:31;;;;;;;14.63;13.65;;;;;;;14.67;100.00;152372.69;10501008;28;20522;-74
2023/09/03 01:52:40;;;;;;;13.80;12.90;;;;;;;14.39;100.00;152302.72;10501776;28;20044;-72
2023/09/03 01:57:47;;;;;;;11.85;11.13;;;;;;;14.26;100.00;152269.06;10500454;28;20045;-72
2023/09/03 02:02:51;;;;;;;12.73;11.80;;;;;;;14.28;100.00;152272.94;10483827;28;20047;-73
2023/09/03 02:07:53;;;;;;;12.35;11.55;;;;;;;14.59;100.00;152353.25;10499450;28;20127;-74
2023/09/03 02:12:55;;;;;;;11.93;11.02;;;;;;;14.72;100.00;152384.34;10501288;28;20127;-73
2023/09/03 02:17:57;;;;;;;12.43;11.57;;;;;;;14.24;100.00;152263.88;10500467;28;20418;-73
2023/09/03 02:22:59;;;;;;;10.25;9.55;;;;;;;14.12;100.00;152234.13;10500096;28;20170;-72
2023/09/03 02:28:03;;;;;;;11.32;10.52;;;;;;;14.12;100.00;152234.13;10500645;28;20041;-72
2023/09/03 02:33:05;;;;;;;9.52;8.93;;;;;;;14.05;100.00;152215.97;10501294;28;20036;-72
2023/09/03 02:38:07;;;;;;;8.45;7.90;;;;;;;14.09;100.00;152226.34;10498757;28;20517;-72
2023/09/03 02:43:08;;;;;;;8.35;7.78;;;;;;;13.93;100.00;152183.59;10498466;28;20064;-72
2023/09/03 02:48:11;;;;;;;10.20;9.05;;;;;;;14.29;100.00;152275.50;10481927;28;20468;-72
2023/09/03 02:53:13;;;;;;;8.38;7.88;;;;;;;14.09;100.00;152225.03;10498455;28;20040;-72
2023/09/03 02:58:15;;;;;;;9.65;6.95;;;;;;;13.97;100.00;152195.25;10497735;28;20040;-73
2023/09/03 03:03:17;;;;;;;7.65;7.15;;;;;;;13.99;100.00;152199.13;10497693;28;20048;-73
2023/09/03 03:08:19;;;;;;;6.55;5.95;;;;;;;14.04;100.00;152213.41;10499220;28;20040;-72
2023/09/03 03:13:22;;;;;;;5.88;5.45;;;;;;;14.08;100.00;152223.75;10497416;28;20498;-71
2023/09/03 03:18:25;;;;;;;7.47;6.97;;;;;;;14.36;100.00;152294.94;10497312;28;20056;-71
2023/09/03 03:23:27;;;;;;;8.10;7.50;;;;;;;14.24;100.00;152262.56;10498924;28;20490;-72
2023/09/03 03:28:33;;;;;;;8.00;7.40;;;;;;;14.01;100.00;152204.31;10496916;28;20044;-71
2023/09/03 03:33:40;;;;;;;6.43;6.03;;;;;;;13.81;100.00;152153.81;10498866;28;20096;-73
2023/09/03 03:38:43;;;;;;;;;;;;;;;13.81;100.00;152155.16;10497796;28;20484;-72
2023/09/03 03:43:47;;;;;;;6.32;5.90;;;;;;;13.84;100.00;152161.59;10496914;28;19978;-73
2023/09/03 03:48:50;;;;;;;7.05;6.47;;;;;;;14.18;100.00;152247.06;10496298;28;20136;-72
2023/09/03 03:53:55;;;;;;;7.40;6.80;;;;;;;13.93;100.00;152183.59;10496513;28;20044;-73
2023/09/03 03:58:57;;;;;;;6.68;5.88;;;;;;;13.79;100.00;152148.66;10496641;28;20498;-72
2023/09/03 04:03:59;;;;;;;6.63;6.13;;;;;;;13.83;100.00;152160.31;10498094;28;20115;-73
2023/09/03 04:09:01;;;;;;;7.43;6.82;;;;;;;13.95;100.00;152188.81;10498268;28;20049;-73
2023/09/03 04:14:03;;;;;;;7.00;6.50;;;;;;;13.72;100.00;152131.81;10497425;28;20045;-72
2023/09/03 04:19:05;;;;;;;6.75;6.25;;;;;;;13.85;100.00;152164.19;10497350;28;20056;-72
2023/09/03 04:24:08;;;;;;;6.45;5.57;;;;;;;13.83;100.00;152159.03;10495911;28;20419;-73
2023/09/03 04:29:10;;;;;;;8.05;7.45;;;;;;;13.81;100.00;152153.81;10500732;28;20041;-73
2023/09/03 04:34:13;;;;;;;6.70;6.20;;;;;;;13.93;100.00;152183.59;10503508;28;20072;-73
2023/09/03 04:39:15;;;;;;;6.70;6.30;;;;;;;14.01;100.00;152204.31;10503061;28;20068;-73
2023/09/03 04:44:17;;;;;;;6.68;6.18;;;;;;;13.99;100.00;152200.47;10504594;28;20047;-72
2023/09/03 04:49:23;;;;;;;7.00;6.60;;;;;;;13.94;100.00;152187.47;10504375;28;20047;-73
2023/09/03 04:54:25;;;;;;;6.88;6.47;;;;;;;14.01;100.00;152204.31;10502523;28;20499;-73
2023/09/03 04:59:27;;;;;;;6.63;6.07;;;;;;;13.98;100.00;152197.84;10502175;28;20055;-72
2023/09/03 05:04:30;;;;;;;6.80;6.30;;;;;;;14.03;100.00;152209.47;10502542;28;20045;-73
2023/09/03 05:09:31;;;;;;;6.38;5.97;;;;;;;14.16;100.00;152243.13;10504712;28;20041;-72
2023/09/03 05:14:33;;;;;;;5.57;5.18;;;;;;;14.58;100.00;152350.69;10502449;28;20126;-72
2023/09/03 05:19:35;;;;;;;5.80;5.35;;;;;;;14.45;100.00;152315.66;10503422;28;20040;-73
2023/09/03 05:24:37;;;;;;;7.10;6.60;;;;;;;14.32;100.00;152283.28;10502078;28;20044;-75
2023/09/03 05:29:39;;;;;;;6.43;6.00;;;;;;;14.33;100.00;152285.88;10501679;28;20040;-73
2023/09/03 05:34:41;;;;;;;7.00;6.55;;;;;;;14.47;100.00;152320.81;10501498;28;20052;-73
2023/09/03 05:39:44;;;;;;;6.70;6.25;;;;;;;14.53;100.00;152337.72;10502456;28;20059;-74
2023/09/03 05:44:48;;;;;;;6.60;6.20;;;;;;;14.67;100.00;152371.41;10502405;28;20403;-74
2023/09/03 05:49:55;;;;;;;5.80;5.40;;;;;;;14.76;100.00;152394.72;10500278;28;20044;-73
2023/09/03 05:54:57;;;;;;;5.90;5.40;;;;;;;14.87;100.00;152423.19;10502382;28;20033;-73
2023/09/03 05:59:59;;;;;;;5.28;4.88;;;;;;;15.05;100.00;152469.84;10501478;28;20068;-73
2023/09/03 06:05:02;;;;;;;5.55;5.15;;;;;;;15.44;100.00;152568.28;10501147;28;20043;-74
2023/09/03 06:10:05;;;;;;;5.88;5.38;;;;;;;15.44;100.00;152568.28;10499535;28;20098;-74
2023/09/03 06:15:08;;;;;;;6.03;5.63;;;;;;;15.66;100.00;152622.78;10499990;28;20120;-75
2023/09/03 06:20:10;;;;;;;4.82;4.53;;;;;;;15.84;100.00;152669.41;10500232;28;20091;-74
2023/09/03 06:25:13;;;;;;;5.30;4.90;;;;;;;16.35;100.00;152799.09;10499840;28;20475;-74
2023/09/03 06:30:15;;;;;;;5.25;4.85;;;;;;;16.65;100.00;152876.91;10499572;28;20094;-74
2023/09/03 06:35:17;;;;;;;8.25;4.35;;;;;;;16.73;100.00;152896.34;10500277;28;20052;-75
2023/09/03 06:40:19;;;;;;;4.63;4.32;;;;;;;17.30;100.00;153041.66;10499914;28;20391;-75
2023/09/03 06:45:21;;;;;;;5.13;4.72;;;;;;;17.05;100.00;152978.13;10483475;28;20045;-74
2023/09/03 06:50:24;;;;;;;4.78;4.47;;;;;;;17.28;100.00;153035.19;10498861;28;20041;-75
2023/09/03 06:55:26;;;;;;;5.18;4.70;;;;;;;17.33;100.00;153048.16;10499340;28;20052;-75
2023/09/03 07:00:28;;;;;;;5.43;5.03;;;;;;;17.40;100.00;153067.63;10499043;28;20048;-74
2023/09/03 07:05:30;;;;;;;5.47;5.07;;;;;;;17.47;100.00;153084.47;10499142;28;20045;-73
2023/09/03 07:10:33;;;;;;;6.53;6.00;;;;;;;17.39;100.00;153065.00;10500921;28;20047;-74
2023/09/03 07:15:36;;;;;;;6.65;6.20;;;;;;;17.55;100.00;153105.25;10499321;28;20044;-74
2023/09/03 07:20:38;;;;;;;8.07;7.47;;;;;;;17.50;100.00;153092.28;10482246;28;20090;-74
2023/09/03 07:25:43;;;;;;;8.38;7.78;;;;;;;17.63;100.00;153126.03;10508196;28;20040;-80
2023/09/03 07:30:49;;;;;;;12.75;8.40;;;;;;;17.83;100.00;153175.38;10527542;28;20040;-81
2023/09/03 07:35:53;;;;;;;8.65;8.05;;;;;;;18.07;100.00;153237.69;10525864;28;20041;-78
2023/09/03 07:41:01;;;;;;;9.27;8.55;;;;;;;18.40;100.00;153320.78;10522611;28;20036;-78
2023/09/03 07:46:05;;;;;;;9.57;8.98;;;;;;;18.70;100.00;153397.44;10519112;28;20040;-78
2023/09/03 07:51:07;;;;;;;9.73;9.02;;;;;;;18.63;100.00;153379.19;10516292;28;20421;-78
2023/09/03 07:56:12;;;;;;;8.10;7.50;;;;;;;19.05;100.00;153485.78;10517447;28;20092;-81
2023/09/03 08:01:16;;;;;;;7.28;6.78;;;;;;;18.83;100.00;153431.22;10504579;28;20095;-79
2023/09/03 08:06:21;;;;;;;8.35;7.85;;;;;;;18.63;100.00;153379.19;10516016;28;20486;-80
2023/09/03 08:11:24;;;;;;;7.82;7.32;;;;;;;18.71;99.67;153398.75;10512616;28;20071;-79
2023/09/03 08:16:30;;;;;;;7.15;6.60;;;;;;;18.94;98.51;153458.47;10530710;28;20058;-79
2023/09/03 08:21:35;;;;;;;6.47;5.97;;;;;;;19.24;92.25;153533.84;10531057;28;20127;-78
2023/09/03 08:26:44;;;;;;;6.97;6.47;;;;;;;19.10;93.74;153498.75;10537211;28;20064;-79
2023/09/03 08:31:52;;;;;;;6.72;6.22;;;;;;;19.10;95.07;153498.75;10524041;28;20036;-80
2023/09/03 08:36:59;;;;;;;8.40;6.50;;;;;;;19.06;95.30;153489.66;10535946;28;20048;-78
2023/09/03 08:42:18;;;;;;;5.97;5.57;;;;;;;19.51;88.20;153603.97;10513688;28;20041;-80
2023/09/03 08:47:41;;;;;;;6.28;5.68;;;;;;;19.47;91.24;153592.28;10539336;28;20049;-79
2023/09/03 08:52:53;;;;;;;5.57;5.07;;;;;;;19.76;88.51;153667.72;10524739;28;20169;-80
2023/09/03 08:58:00;;;;;;;6.47;5.97;;;;;;;19.91;83.29;153706.69;10536022;28;20063;-80
2023/09/03 09:03:13;;;;;;;6.35;5.80;;;;;;;19.81;83.15;153680.72;10502247;28;20040;-79
2023/09/03 09:08:25;;;;;;;5.10;4.65;;;;;;;19.78;86.04;153671.59;10518966;28;20052;-79
2023/09/03 09:13:46;;;;;;;5.22;4.82;;;;;;;19.81;85.17;153680.72;10519672;28;20067;-79
2023/09/03 09:19:02;;;;;;;5.68;5.18;;;;;;;20.20;83.64;153779.53;10539700;28;20048;-80
2023/09/03 09:24:11;;;;;;;4.82;4.35;;;;;;;20.83;79.90;153940.78;10514804;28;20049;-80
2023/09/03 09:29:21;;;;;;;5.32;4.90;;;;;;;20.62;78.81;153887.44;10529350;28;20104;-81
2023/09/03 09:34:26;;;;;;;4.72;4.30;;;;;;;20.22;83.62;153784.69;10512161;28;20048;-80
2023/09/03 09:39:29;;;;;;;4.93;4.53;;;;;;;19.93;85.08;153709.34;10515813;28;20041;-80
2023/09/03 09:44:30;;;;;;;4.18;3.80;;;;;;;19.40;80.45;153575.44;10515561;28;20127;-80
2023/09/03 09:49:42;;;;;;;3.75;2.85;;;;;;;19.77;77.13;153669.03;10518812;28;20076;-78
2023/09/03 09:54:51;;;;;;;3.90;3.42;;;;;;;19.56;80.09;153616.97;10529947;28;20063;-78
2023/09/03 10:00:01;;;;;;;4.60;4.30;;;;;;;19.61;81.03;153630.06;10512025;28;20044;-81
2023/09/03 10:05:10;;;;;;;4.90;4.50;;;;;;;20.36;76.92;153819.78;10514836;28;20127;-80
2023/09/03 10:10:16;;;;;;;3.92;3.63;;;;;;;21.07;74.26;154001.94;10508206;28;20056;-81
2023/09/03 10:15:21;;;;;;;3.08;2.83;;;;;;;20.75;70.44;153918.69;10520652;28;20040;-79
2023/09/03 10:20:23;;;;;;;3.78;2.60;;;;;;;21.54;68.12;154120.34;10515583;28;20110;-79
2023/09/03 10:25:29;;;;;;;2.70;2.50;;;;;;;21.64;67.17;154147.66;10516543;28;20040;-79
2023/09/03 10:30:36;;;;;;;2.95;2.35;;;;;;;22.13;62.80;154272.69;10520678;28;20132;-81
2023/09/03 10:35:38;;;;;;;2.58;2.38;;;;;;;22.31;63.82;154318.25;10519048;28;20048;-80
2023/09/03 10:40:40;;;;;;;3.42;3.13;;;;;;;22.59;62.85;154389.84;10515226;28;20045;-82
2023/09/03 10:46:04;;;;;;;2.33;2.13;;;;;;;22.11;62.91;154267.41;10520291;28;20466;-80
2023/09/03 10:51:06;;;;;;;2.60;2.03;;;;;;;22.00;63.40;154238.81;10521435;28;20044;-80
2023/09/03 10:56:13;;;;;;;1.85;1.58;;;;;;;22.03;65.60;154245.28;10520030;28;20049;-81
2023/09/03 11:01:26;;;;;;;2.60;1.60;;;;;;;21.88;63.39;154207.56;10519066;28;20054;-80
2023/09/03 11:06:33;;;;;;;2.67;2.45;;;;;;;21.94;63.32;154223.16;10520228;28;20036;-79
2023/09/03 11:11:35;;;;;;;2.72;1.83;;;;;;;21.92;62.12;154219.25;10525901;28;20457;-80
2023/09/03 11:16:40;;;;;;;2.63;1.52;;;;;;;21.70;60.33;154162.00;10522237;28;20090;-81
2023/09/03 11:21:42;;;;;;;2.10;1.70;;;;;;;21.94;58.35;154223.16;10517139;28;20045;-79
2023/09/03 11:26:45;;;;;;;1.80;1.50;;;;;;;21.95;58.13;154225.75;10519675;28;20040;-79
2023/09/03 11:31:50;;;;;;;3.22;2.60;;;;;;;22.05;56.16;154250.50;10518566;28;20051;-79
2023/09/03 11:36:53;;;;;;;1.85;1.50;;;;;;;22.24;57.74;154298.72;10517085;28;20053;-81
2023/09/03 11:41:55;;;;;;;3.80;1.65;;;;;;;21.80;56.98;154186.72;10517196;28;20044;-80
2023/09/03 11:47:01;;;;;;;1.83;1.50;;;;;;;21.84;57.10;154197.13;10516241;28;20068;-79
2023/09/03 11:52:13;;;;;;;2.00;1.80;;;;;;;22.07;59.08;154255.69;10515442;28;20032;-80
2023/09/03 11:57:16;;;;;;;2.00;1.60;;;;;;;21.88;57.58;154208.84;10514516;28;20051;-79
2023/09/03 12:02:18;;;;;;;1.50;1.40;;;;;;;22.54;58.43;154376.81;10515826;28;20041;-80
2023/09/03 12:07:20;;;;;;;2.22;1.70;;;;;;;22.27;56.99;154306.50;10511499;28;20048;-77
2023/09/03 12:12:22;;;;;;;1.83;1.35;;;;;;;22.45;57.98;154352.09;10512666;28;20044;-79
2023/09/03 12:17:28;;;;;;;2.45;1.58;;;;;;;22.02;58.62;154243.97;10515587;28;20052;-79
2023/09/03 12:22:30;;;;;;;1.92;1.75;;;;;;;21.58;59.53;154130.78;10517896;28;20032;-79
2023/09/03 12:27:47;;;;;;;1.95;1.75;;;;;;;21.06;62.13;153999.31;10510252;28;20048;-78
2023/09/03 12:32:53;;;;;;;1.90;1.70;;;;;;;20.87;64.27;153949.91;10516768;28;20040;-79
2023/09/03 12:38:01;;;;;;;2.15;1.63;;;;;;;21.24;62.61;154044.84;10513313;28;20410;-81
2023/09/03 12:43:03;;;;;;;1.60;1.50;;;;;;;21.62;62.69;154142.47;10514471;28;20053;-78
2023/09/03 12:48:05;;;;;;;1.63;1.52;;;;;;;21.67;59.91;154154.19;10514088;28;20494;-81
2023/09/03 12:53:07;;;;;;;2.60;1.52;;;;;;;21.56;59.60;154125.53;10519698;28;20040;-80
2023/09/03 12:58:08;;;;;;;2.05;1.45;;;;;;;21.16;61.14;154025.34;10519076;28;20048;-78
2023/09/03 13:03:10;;;;;;;2.58;1.35;;;;;;;21.40;61.29;154086.53;10518888;28;20076;-81
2023/09/03 13:08:12;;;;;;;1.70;1.60;;;;;;;21.32;61.15;154064.41;10519682;28;20098;-81
2023/09/03 13:13:14;;;;;;;1.73;1.27;;;;;;;21.34;61.12;154070.94;10515372;28;20076;-81
2023/09/03 13:18:16;;;;;;;1.60;1.35;;;;;;;21.82;59.88;154191.91;10517670;28;20044;-82
2023/09/03 13:23:17;;;;;;;1.40;1.27;;;;;;;21.76;58.01;154176.31;10519038;28;20100;-79
2023/09/03 13:28:19;;;;;;;2.00;1.20;;;;;;;21.55;59.42;154124.25;10505310;28;20460;-75
2023/09/03 13:33:21;;;;;;;5.03;1.85;;;;;;;21.22;57.86;154038.34;10503250;28;20534;-74
2023/09/03 13:38:24;;;;;;;1.65;1.10;;;;;;;21.57;57.19;154128.19;10503444;28;20048;-75
2023/09/03 13:43:26;;;;;;;2.03;1.20;;;;;;;21.52;57.47;154116.47;10502033;28;20040;-76
2023/09/03 13:48:28;;;;;;;2.15;1.02;;;;;;;21.54;57.90;154120.34;10502080;28;20130;-73
2023/09/03 13:53:30;;;;;;;2.72;1.00;;;;;;;21.16;59.48;154024.00;10501750;28;20127;-74
2023/09/03 13:58:32;;;;;;;1.92;0.95;;;;;;;21.33;58.42;154067.00;10501666;28;20410;-73
2023/09/03 14:03:33;;;;;;;0.88;0.82;;;;;;;21.08;57.01;154003.25;10501639;28;20380;-72
2023/09/03 14:08:35;;;;;;;1.10;1.00;;;;;;;20.87;55.92;153951.19;10500257;28;20098;-74
2023/09/03 14:13:37;;;;;;;1.20;0.80;;;;;;;20.55;55.28;153867.97;10501060;28;20109;-75
2023/09/03 14:18:39;;;;;;;1.77;0.75;;;;;;;20.54;55.05;153866.69;10500982;28;20064;-74
2023/09/03 14:23:41;;;;;;;2.97;0.82;;;;;;;20.64;52.17;153892.69;10501412;28;20037;-74
2023/09/03 14:28:42;;;;;;;0.70;0.63;;;;;;;20.65;51.37;153893.97;10500763;28;20120;-74
2023/09/03 14:33:44;;;;;;;1.35;0.90;;;;;;;20.75;49.44;153918.69;10500092;28;20079;-73
2023/09/03 14:38:46;;;;;;;1.13;0.60;;;;;;;20.63;51.86;153890.09;10499285;28;20068;-73
2023/09/03 14:43:48;;;;;;;1.10;0.60;;;;;;;20.69;49.36;153904.38;10499878;28;20550;-74
2023/09/03 14:48:49;;;;;;;1.00;0.50;;;;;;;20.60;51.76;153880.97;10499548;28;20045;-73
2023/09/03 14:53:51;;;;;;;0.80;0.60;;;;;;;20.54;51.67;153865.34;10500007;28;20044;-73
2023/09/03 14:58:53;;;;;;;1.00;0.50;;;;;;;20.74;48.73;153917.38;10499667;28;20090;-75
2023/09/03 15:03:55;;;;;;;2.00;0.65;;;;;;;20.77;51.74;153925.19;10499422;28;20063;-74
2023/09/03 15:08:57;;;;;;;1.67;0.52;;;;;;;20.74;51.08;153917.38;10498967;28;20054;-74
2023/09/03 15:14:02;;;;;;;0.90;0.60;;;;;;;20.64;52.55;153891.38;10497785;28;20474;-75
2023/09/03 15:19:04;;;;;;;0.45;0.45;;;;;;;20.70;53.43;153906.97;10498926;28;20067;-74
2023/09/03 15:24:06;;;;;;;0.98;0.60;;;;;;;20.40;54.17;153830.19;10499496;28;20458;-73
2023/09/03 15:29:07;;;;;;;1.63;0.60;;;;;;;20.77;52.60;153925.19;10497812;28;20098;-73
2023/09/03 15:34:10;;;;;;;1.42;0.70;;;;;;;20.83;53.16;153940.78;10499581;28;20094;-73
2023/09/03 15:39:12;;;;;;;1.08;0.70;;;;;;;20.50;54.59;153855.00;10500603;28;20044;-75
2023/09/03 15:44:14;;;;;;;1.23;0.63;;;;;;;20.57;53.20;153874.47;10499014;28;20127;-73
2023/09/03 15:49:16;;;;;;;0.98;0.63;;;;;;;20.56;52.49;153871.88;10499941;28;20118;-73
2023/09/03 15:54:18;;;;;;;0.55;0.50;;;;;;;20.33;53.39;153813.31;10498977;28;20380;-74
2023/09/03 15:59:20;;;;;;;0.80;0.60;;;;;;;20.06;54.64;153744.41;10498793;28;20116;-73
2023/09/03 16:04:26;;;;;;;1.55;0.80;;;;;;;20.08;55.28;153749.59;10499274;28;20061;-73
2023/09/03 16:09:29;;;;;;;1.23;0.98;;;;;;;20.18;54.63;153774.28;10498528;28;20410;-74
2023/09/03 16:14:31;;;;;;;1.55;0.90;;;;;;;19.94;55.76;153711.91;10497703;28;20075;-73
2023/09/03 16:19:33;;;;;;;1.33;0.93;;;;;;;20.03;54.74;153736.59;10498631;28;20421;-73
2023/09/03 16:24:35;;;;;;;1.25;1.05;;;;;;;19.74;57.24;153662.50;10502338;28;20037;-72
2023/09/03 16:29:37;;;;;;;1.52;0.90;;;;;;;19.71;56.50;153654.75;10506592;28;20098;-74
2023/09/03 16:34:38;;;;;;;2.30;2.10;;;;;;;19.54;57.64;153610.50;10506872;28;20056;-75
2023/09/03 16:39:40;;;;;;;1.58;0.70;;;;;;;19.80;56.47;153676.84;10504082;28;20421;-73
2023/09/03 16:44:42;;;;;;;1.90;1.20;;;;;;;19.71;57.34;153653.44;10505883;28;20090;-73
2023/09/03 16:49:44;;;;;;;1.33;0.93;;;;;;;19.75;56.74;153665.13;10506191;28;20119;-72
2023/09/03 16:54:46;;;;;;;1.42;0.60;;;;;;;19.42;58.74;153581.91;10505133;28;20447;-74
2023/09/03 16:59:47;;;;;;;1.77;0.90;;;;;;;19.21;59.60;153526.03;10506664;28;20415;-74
2023/09/03 17:04:49;;;;;;;0.90;0.70;;;;;;;19.41;59.34;153578.00;10504931;28;20048;-74
2023/09/03 17:09:51;;;;;;;1.55;1.00;;;;;;;19.22;59.76;153529.94;10508618;28;20056;-74
2023/09/03 17:14:53;;;;;;;1.20;0.70;;;;;;;19.41;58.75;153578.00;10509254;28;20410;-73
2023/09/03 17:19:55;;;;;;;1.33;1.10;;;;;;;19.06;60.34;153489.66;10507257;28;20071;-74
2023/09/03 17:24:56;;;;;;;4.63;0.90;;;;;;;18.99;61.11;153471.50;10507322;28;20501;-73
2023/09/03 17:29:58;;;;;;;2.45;0.90;;;;;;;18.93;61.41;153454.59;10506880;28;20044;-75
2023/09/03 17:35:00;;;;;;;1.23;0.90;;;;;;;18.76;62.23;153411.72;10506300;28;20068;-74
2023/09/03 17:40:05;;;;;;;1.90;0.93;;;;;;;18.89;61.72;153445.50;10506229;28;20040;-74
2023/09/03 17:45:07;;;;;;;1.35;0.80;;;;;;;18.55;63.75;153359.75;10508047;28;20036;-74
2023/09/03 17:50:09;;;;;;;1.17;0.90;;;;;;;18.59;63.08;153370.16;10506785;28;20041;-74
2023/09/03 17:55:11;;;;;;;1.35;1.00;;;;;;;18.52;63.42;153351.94;10507949;28;20044;-73
2023/09/03 18:00:14;;;;;;;1.27;1.00;;;;;;;18.13;66.12;153251.97;10505362;28;20044;-74
2023/09/03 18:05:17;;;;;;;1.60;0.90;;;;;;;17.82;68.12;153174.09;10506664;28;20457;-74
2023/09/03 18:10:19;;;;;;;1.02;0.90;;;;;;;17.80;67.55;153167.63;10506609;28;20048;-73
2023/09/03 18:15:21;;;;;;;2.17;1.27;;;;;;;17.71;68.34;153144.16;10505840;28;20052;-75
2023/09/03 18:20:23;;;;;;;1.33;0.73;;;;;;;17.87;67.38;153187.06;10506287;28;20068;-74
2023/09/03 18:25:25;;;;;;;2.40;1.10;;;;;;;17.84;67.35;153177.97;10505787;28;20066;-74
2023/09/03 18:30:27;;;;;;;2.17;1.40;;;;;;;17.24;71.67;153024.81;10505068;28;20479;-75
2023/09/03 18:35:29;;;;;;;1.95;1.60;;;;;;;16.98;73.50;152959.94;10504047;28;20120;-76
2023/09/03 18:40:31;;;;;;;1.70;1.20;;;;;;;16.93;73.91;152946.97;10504061;28;20053;-74
2023/09/03 18:45:34;;;;;;;1.55;1.42;;;;;;;17.11;72.15;152993.66;10503647;28;20060;-75
2023/09/03 18:50:36;;;;;;;2.67;1.30;;;;;;;16.94;73.59;152948.25;10503871;28;20048;-74
2023/09/03 18:55:39;;;;;;;2.00;1.40;;;;;;;17.09;72.58;152987.19;10501978;28;20567;-75
2023/09/03 19:00:40;;;;;;;1.58;1.30;;;;;;;16.98;72.68;152959.94;10502946;28;20075;-75
2023/09/03 19:05:45;;;;;;;2.33;1.30;;;;;;;16.64;76.40;152874.31;10502846;28;20033;-73
2023/09/03 19:10:55;;;;;;;2.10;1.23;;;;;;;16.95;72.53;152950.84;10501713;28;20115;-75
2023/09/03 19:15:56;;;;;;;1.65;1.10;;;;;;;16.82;72.87;152918.41;10498478;28;20131;-74
2023/09/03 19:20:58;;;;;;;1.98;1.20;;;;;;;16.51;75.74;152840.59;10498802;28;20410;-73
2023/09/03 19:26:00;;;;;;;1.55;1.20;;;;;;;16.48;75.09;152831.50;10500951;28;20135;-79
2023/09/03 19:31:02;;;;;;;1.35;1.08;;;;;;;16.37;75.66;152804.25;10510653;28;20068;-80
2023/09/03 19:36:04;;;;;;;1.73;0.98;;;;;;;16.48;73.62;152832.78;10511590;28;20052;-79
2023/09/03 19:41:06;;;;;;;1.50;1.20;;;;;;;16.18;76.54;152756.28;10511557;28;20068;-80
2023/09/03 19:46:08;;;;;;;2.55;1.20;;;;;;;16.27;75.99;152778.31;10513759;28;20115;-79
2023/09/03 19:51:10;;;;;;;1.20;1.00;;;;;;;16.27;76.15;152778.31;10515152;28;20044;-81
2023/09/03 19:56:16;;;;;;;1.48;1.20;;;;;;;16.47;75.46;152830.22;10513764;28;20109;-80
2023/09/03 20:01:20;;;;;;;2.05;1.85;;;;;;;16.39;75.42;152810.75;10523905;28;20046;-80
2023/09/03 20:06:23;;;;;;;2.08;1.00;;;;;;;16.30;75.46;152786.13;10528367;28;20029;-79
2023/09/03 20:11:24;;;;;;;2.05;1.00;;;;;;;16.14;76.22;152747.19;10526844;28;20106;-81
2023/09/03 20:16:27;;;;;;;1.67;1.00;;;;;;;16.14;75.62;152747.19;10524502;28;20044;-80
2023/09/03 20:21:30;;;;;;;2.08;0.93;;;;;;;16.08;75.93;152730.38;10519993;28;20051;-79
2023/09/03 20:26:32;;;;;;;1.20;0.90;;;;;;;15.99;75.96;152708.34;10519636;28;20541;-79
2023/09/03 20:31:34;;;;;;;1.15;1.05;;;;;;;15.98;75.90;152705.75;10520753;28;20049;-79
2023/09/03 20:36:36;;;;;;;1.25;0.80;;;;;;;15.92;75.85;152690.16;10515845;28;20044;-79
2023/09/03 20:41:39;;;;;;;0.93;0.77;;;;;;;15.84;77.12;152669.41;10519224;28;20076;-78
2023/09/03 20:46:43;;;;;;;1.55;1.10;;;;;;;15.88;76.43;152681.09;10518626;28;20049;-79
2023/09/03 20:51:44;;;;;;;1.98;0.90;;;;;;;15.91;75.49;152687.59;10515993;28;20052;-79
2023/09/03 20:56:46;;;;;;;2.30;1.02;;;;;;;16.07;74.53;152727.75;10517091;28;20051;-79
2023/09/03 21:01:52;;;;;;;2.28;1.40;;;;;;;15.54;79.98;152594.25;10517557;28;20102;-79
2023/09/03 21:06:55;;;;;;;1.67;0.95;;;;;;;15.36;81.13;152547.53;10516664;28;20044;-80
2023/09/03 21:11:56;;;;;;;2.47;1.15;;;;;;;15.45;82.84;152570.91;10515719;28;20402;-78
2023/09/03 21:16:58;;;;;;;1.90;1.17;;;;;;;15.36;84.00;152548.88;10515136;28;20041;-78
2023/09/03 21:22:00;;;;;;;1.05;0.90;;;;;;;15.25;85.18;152520.34;10518078;28;20041;-78
2023/09/03 21:27:02;;;;;;;1.45;1.05;;;;;;;15.12;86.19;152486.66;10515505;28;20102;-79
2023/09/03 21:32:05;;;;;;;3.38;1.35;;;;;;;15.12;86.68;152487.97;10489409;28;20537;-77
2023/09/03 21:37:06;;;;;;;2.45;1.30;;;;;;;15.13;87.18;152490.53;10508800;28;20043;-78
2023/09/03 21:42:08;;;;;;;1.35;1.10;;;;;;;14.97;89.35;152447.84;10511398;28;20048;-78
2023/09/03 21:47:10;;;;;;;1.33;1.20;;;;;;;14.90;89.89;152430.97;10513184;28;20059;-78
2023/09/03 21:52:11;;;;;;;2.65;1.33;;;;;;;14.84;90.54;152415.44;10513327;28;20102;-79
2023/09/03 21:57:13;;;;;;;1.65;1.20;;;;;;;14.83;90.62;152414.16;10511974;28;20037;-78
2023/09/03 22:02:15;;;;;;;2.72;1.50;;;;;;;14.77;90.63;152397.28;10512836;28;20040;-79
2023/09/03 22:07:17;;;;;;;2.15;1.83;;;;;;;14.66;91.65;152368.84;10510104;28;20048;-78
2023/09/03 22:12:19;;;;;;;1.33;1.20;;;;;;;14.58;92.57;152349.38;10512580;28;20048;-79
2023/09/03 22:17:20;;;;;;;2.08;1.00;;;;;;;14.90;91.25;152430.97;10510848;28;20068;-80
2023/09/03 22:22:22;;;;;;;1.48;1.30;;;;;;;14.86;90.80;152420.59;10512263;28;20043;-78
2023/09/03 22:27:24;;;;;;;1.25;0.98;;;;;;;14.59;92.48;152351.97;10514854;28;20044;-79
2023/09/03 22:32:26;;;;;;;1.73;1.23;;;;;;;14.69;91.51;152376.56;10515799;28;20076;-77
2023/09/03 22:37:28;;;;;;;1.75;1.20;;;;;;;14.52;92.57;152335.16;10515641;28;20534;-80
2023/09/03 22:42:30;;;;;;;1.73;1.10;;;;;;;14.34;94.35;152288.44;10513122;28;20047;-79
2023/09/03 22:47:33;;;;;;;1.88;0.98;;;;;;;14.42;94.34;152309.19;10513962;28;20048;-79
2023/09/03 22:52:34;;;;;;;2.25;1.17;;;;;;;14.38;94.18;152298.81;10507679;28;20044;-78
2023/09/03 22:57:36;;;;;;;2.58;1.48;;;;;;;14.31;92.99;152282.00;10511750;28;20082;-81
2023/09/03 23:02:39;;;;;;;1.73;1.20;;;;;;;14.09;95.44;152226.34;10511439;28;20044;-80